Flight Track Log - Related Links

Times and Time Zones

All times are in EDT time to prevent confusion due to time zone crossing. See the AFL150 flight status page for this flight to view local times or setup timezone preferences in your user account.

Time Position Orientation Groundspeed Altitude Reporting Facility
EDT Latitude Longitude Course Direction KTS MPH feet Rate Location/Type
Sun 06:37:00 AM 56.2388 36.8641 313° West  Level FlightAware Approximate
Sun 06:38:00 AM 56.3238 36.6992 313° West  Level FlightAware Approximate
Sun 06:39:00 AM 56.4086 36.5335 313° West  Level FlightAware Approximate
Sun 06:40:00 AM 56.4932 36.3671 313° West  Level FlightAware Approximate
Sun 06:41:00 AM 56.5775 36.2000 313° West  Level FlightAware Approximate
Sun 06:42:00 AM 56.6616 36.0321 312° West  Level FlightAware Approximate
Sun 06:43:00 AM 56.7455 35.8635 312° West  Level FlightAware Approximate
Sun 06:44:00 AM 56.8292 35.6941 312° West  Level FlightAware Approximate
Sun 06:45:00 AM 56.9126 35.5239 312° West  Level FlightAware Approximate
Sun 06:46:00 AM 56.9958 35.3530 312° West  Level FlightAware Approximate
Sun 06:47:00 AM 57.0788 35.1813 312° West  Level FlightAware Approximate
Sun 06:48:00 AM 57.1615 35.0089 312° West  Level FlightAware Approximate
Sun 06:49:00 AM 57.2440 34.8357 311° West  Level FlightAware Approximate
Sun 06:50:00 AM 57.3263 34.6617 311° West  Level FlightAware Approximate
Sun 06:51:00 AM 57.4083 34.4869 311° West  Level FlightAware Approximate
Sun 06:52:00 AM 57.4901 34.3114 311° West  Level FlightAware Approximate
Sun 06:53:00 AM 57.5012 34.2760 309° West  Level FlightAware Approximate
Sun 06:54:00 AM 57.5791 34.0940 309° West  Level FlightAware Approximate
Sun 06:55:00 AM 57.6567 33.9113 309° West  Level FlightAware Approximate
Sun 06:56:00 AM 57.7341 33.7277 308° West  Level FlightAware Approximate
Sun 06:57:00 AM 57.8112 33.5434 308° West  Level FlightAware Approximate
Sun 06:58:00 AM 57.8881 33.3583 308° West  Level FlightAware Approximate
Sun 06:59:00 AM 57.9646 33.1724 308° West  Level FlightAware Approximate
Sun 07:00:00 AM 58.0410 32.9857 308° West  Level FlightAware Approximate
Sun 07:01:00 AM 58.1170 32.7982 308° West  Level FlightAware Approximate
Sun 07:02:00 AM 58.1927 32.6099 307° West  Level FlightAware Approximate
Sun 07:03:00 AM 58.2682 32.4208 307° West  Level FlightAware Approximate
Sun 07:03:21 AM 56.0881 32.6374 270° West 477 549 34,000  Level FlightAware ADS-B
Sun 07:06:23 AM 56.3014 31.3786 326° Northwest 474 545 34,000  Level FlightAware ADS-B
Sun 07:07:22 AM 56.4098 31.2490 326° Northwest 473 544 34,000  Level FlightAware ADS-B
Sun 07:08:22 AM 56.5097 31.1263 322° Northwest 472 543 34,000  Level FlightAware ADS-B
Sun 07:09:28 AM 56.6112 30.9448 310° West 471 542 34,000  Level FlightAware ADS-B
Sun 07:10:33 AM 56.7026 30.7524 310° West 471 542 34,000  Level FlightAware ADS-B
Sun 07:11:33 AM 56.7804 30.5624 318° Northwest 468 539 34,000  Level FlightAware ADS-B
Sun 07:12:34 AM 56.8819 30.4261 325° Northwest 466 536 34,000  Level FlightAware ADS-B
Sun 07:13:35 AM 57.0014 30.2753 326° Northwest 470 541 34,000  Level FlightAware ADS-B
Sun 07:14:36 AM 57.0964 30.1596 309° West 463 533 34,000  Level FlightAware ADS-B
Sun 07:15:35 AM 57.1663 29.9560 298° West 463 533 34,000  Level FlightAware ADS-B
Sun 07:16:41 AM 57.2352 29.7188 298° West 465 535 34,000  Level FlightAware ADS-B
Sun 07:17:46 AM 57.3012 29.4896 298° West 466 536 34,000  Level FlightAware ADS-B
Sun 07:18:47 AM 57.3624 29.2745 298° West 465 535 34,000  Level FlightAware ADS-B
Sun 07:19:48 AM 57.4254 29.0510 297° West 464 534 34,000  Level FlightAware ADS-B
Sun 07:20:50 AM 57.4824 28.8468 297° West 463 533 34,000  Level FlightAware ADS-B
Sun 07:21:51 AM 57.5405 28.6366 297° West 461 531 34,000  Level FlightAware ADS-B
Sun 07:22:53 AM 57.5858 28.4718 297° West 458 527 34,000  Level FlightAware ADS-B
Sun 07:23:44 AM 57.6546 28.2186 297° West 457 526 34,000  Level FlightAware ADS-B
Sun 07:25:01 AM 57.7220 27.9681 297° West 454 522 34,000  Level FlightAware ADS-B
Sun 07:26:02 AM 57.7836 27.7364 297° West 454 522 34,000  Level FlightAware ADS-B
Sun 07:27:03 AM 57.8341 27.5408 292° West 452 520 34,000  Level FlightAware ADS-B
Sun 07:28:03 AM 57.8942 27.3280 301° West 455 524 34,000  Level FlightAware ADS-B
Sun 07:28:36 AM 57.9333 27.2054 301° West 455 524 34,000  Level FlightAware ADS-B
Sun 07:29:36 AM 57.9986 26.9977 301° West 453 521 34,000  Level FlightAware ADS-B
Sun 07:30:36 AM 58.0619 26.7937 301° West 453 521 34,000  Level FlightAware ADS-B
Sun 07:31:10 AM 58.0918 26.6986 301° West 455 524 34,000  Level FlightAware ADS-B
Sun 07:32:14 AM 58.1611 26.4746 300° West 451 519 34,000  Level FlightAware ADS-B
Sun 07:33:16 AM 58.2243 26.2693 301° West 451 519 34,000  Level FlightAware ADS-B
Sun 07:34:16 AM 58.2942 26.0457 301° West 451 519 34,000  Level FlightAware ADS-B
Sun 07:35:18 AM 58.3505 25.8639 301° West 448 516 34,000  Level FlightAware ADS-B
Sun 07:35:56 AM 58.3932 25.7266 301° West 448 516 34,000  Level FlightAware ADS-B
Sun 07:36:27 AM 58.4319 25.6022 301° West 449 517 34,000  Level FlightAware ADS-B
Sun 07:37:04 AM 58.4709 25.4771 301° West 449 517 34,000  Level FlightAware ADS-B
Sun 07:37:36 AM 58.5041 25.3703 301° West 449 517 34,000  Level FlightAware ADS-B
Sun 07:38:14 AM 58.5342 25.2398 281° West 441 507 34,000  Level FlightAware ADS-B
Sun 07:38:52 AM 58.5487 25.0855 281° West 440 506 34,000  Level FlightAware ADS-B
Sun 07:39:26 AM 58.5614 24.9570 281° West 440 506 34,000  Level FlightAware ADS-B
Sun 07:39:56 AM 58.5730 24.8417 281° West 440 506 34,000  Level FlightAware ADS-B
Sun 07:40:31 AM 58.5809 24.7652 281° West 441 507 34,000  Level FlightAware ADS-B
Sun 07:41:25 AM 58.6072 24.5020 281° West 443 510 34,000  Level FlightAware ADS-B
Sun 07:41:57 AM 58.6170 24.4021 281° West 443 510 34,000  Level FlightAware ADS-B
Sun 07:42:27 AM 58.6304 24.2642 281° West 444 511 34,000  Level FlightAware ADS-B
Sun 07:43:06 AM 58.6447 24.1137 280° West 443 510 34,000  Level FlightAware ADS-B
Sun 07:43:41 AM 58.6572 23.9821 280° West 443 510 34,000  Level FlightAware ADS-B
Sun 07:44:26 AM 58.6730 23.8128 280° West 442 509 34,000  Level FlightAware ADS-B
Sun 07:44:57 AM 58.6846 23.6868 280° West 444 511 34,000  Level FlightAware ADS-B
Sun 07:45:27 AM 58.6951 23.5709 280° West 445 512 34,000  Level FlightAware ADS-B
Sun 07:45:58 AM 58.7059 23.4514 280° West 447 514 34,000  Level FlightAware ADS-B
Sun 07:46:31 AM 58.7174 23.3225 280° West 447 514 34,000  Level FlightAware ADS-B
Sun 07:47:27 AM 58.7369 23.0988 279° West 447 514 34,000  Level FlightAware ADS-B
Sun 07:48:07 AM 58.7499 22.9478 279° West 447 514 34,000  Level FlightAware ADS-B
Sun 07:48:38 AM 58.7603 22.8257 279° West 448 516 34,000  Level FlightAware ADS-B
Sun 07:49:17 AM 58.7736 22.6682 279° West 449 517 34,000  Level FlightAware ADS-B
Sun 07:49:48 AM 58.7834 22.5483 279° West 449 517 34,000  Level FlightAware ADS-B
Sun 07:50:26 AM 58.7945 22.4121 279° West 449 517 34,000  Level FlightAware ADS-B
Sun 07:50:58 AM 58.8038 22.2976 279° West 449 517 34,000  Level FlightAware ADS-B
Sun 07:51:35 AM 58.8157 22.1478 279° West 449 517 34,000  Level FlightAware ADS-B
Sun 07:52:07 AM 58.8275 21.9972 279° West 448 516 34,000  Level FlightAware ADS-B
Sun 07:52:47 AM 58.8394 21.8420 279° West 447 514 34,000  Level FlightAware ADS-B
Sun 07:53:17 AM 58.8482 21.7278 278° West 447 514 34,000  Level FlightAware ADS-B
Sun 07:54:17 AM 58.8661 21.4889 278° West 447 514 34,000  Level FlightAware ADS-B
Sun 07:54:49 AM 58.8760 21.3630 281° West 447 514 34,000  Level FlightAware ADS-B
Sun 07:55:05 AM 58.8661 21.4889 289° West 449 517 34,000  Level FlightAware ADS-B
Sun 07:59:55 AM 59.0640 20.1939 287° West 455 524 34,000  Level FlightAware ADS-B
Sun 08:00:26 AM 59.0863 20.0506 287° West 456 525 34,000  Level FlightAware ADS-B
Sun 08:01:14 AM 59.1121 19.8827 286° West 457 526 34,000  Level FlightAware ADS-B
Sun 08:01:55 AM 59.1371 19.7178 286° West 457 526 34,000  Level FlightAware ADS-B
Sun 08:02:14 AM 59.1508 19.6271 286° West 457 526 34,000  Level FlightAware ADS-B
Sun 08:02:55 AM 59.1724 19.4832 286° West 458 527 34,000  Level FlightAware ADS-B
Sun 08:03:29 AM 59.1953 19.3297 286° West 459 528 34,000  Level FlightAware ADS-B
Sun 08:04:15 AM 59.2183 19.1732 286° West 460 529 34,000  Level FlightAware ADS-B
Sun 08:04:55 AM 59.2426 19.0069 286° West 461 531 34,000  Level FlightAware ADS-B
Sun 08:05:29 AM 59.2645 18.8551 285° West 460 529 34,000  Level FlightAware ADS-B
Sun 08:05:59 AM 59.2818 18.7342 285° West 462 532 34,000  Level FlightAware ADS-B
Sun 08:06:14 AM 59.2906 18.6724 285° West 463 533 34,000  Level FlightAware ADS-B
Sun 08:06:44 AM 59.3077 18.5523 284° West 466 536 34,000  Level FlightAware ADS-B
Sun 08:07:16 AM 59.3232 18.4419 285° West 470 541 34,000  Level FlightAware ADS-B
Sun 08:07:57 AM 59.3470 18.2711 285° West 473 544 34,000  Level FlightAware ADS-B
Sun 08:08:11 AM 59.3577 18.1936 284° West 473 544 34,000  Level FlightAware ADS-B
Sun 08:08:45 AM 59.3767 18.0558 284° West 473 544 34,000  Level FlightAware ADS-B
Sun 08:09:17 AM 59.3920 17.9427 285° West 475 547 34,000  Level FlightAware ADS-B
Sun 08:09:57 AM 59.4148 17.7742 285° West 476 548 34,000  Level FlightAware ADS-B
Sun 08:10:13 AM 59.4263 17.6880 284° West 475 547 34,000  Level FlightAware ADS-B
Sun 08:10:44 AM 59.4437 17.5571 284° West 475 547 34,000  Level FlightAware ADS-B
Sun 08:11:15 AM 59.4581 17.4473 284° West 478 550 34,000  Level FlightAware ADS-B
Sun 08:11:55 AM 59.4804 17.2772 284° West 479 551 34,000  Level FlightAware ADS-B
Sun 08:12:29 AM 59.5009 17.1191 284° West 481 554 34,000  Level FlightAware ADS-B
Sun 08:13:19 AM 59.5256 16.9244 284° West 483 556 34,000  Level FlightAware ADS-B
Sun 08:13:59 AM 59.5475 16.7514 284° West 485 558 34,000  Level FlightAware ADS-B
Sun 08:14:30 AM 59.5663 16.6006 284° West 486 559 34,000  Level FlightAware ADS-B
Sun 08:15:00 AM 59.5820 16.4742 284° West 487 560 34,000  Level FlightAware ADS-B
Sun 08:15:30 AM 59.5976 16.3473 284° West 487 560 34,000  Level FlightAware ADS-B
Sun 08:16:09 AM 59.6160 16.1953 283° West 486 559 34,000  Level FlightAware ADS-B
Sun 08:16:45 AM 59.6369 16.0206 283° West 486 559 34,000  Level FlightAware ADS-B
Sun 08:17:16 AM 59.6525 15.8892 282° West 485 558 34,000  Level FlightAware ADS-B
Sun 08:18:00 AM 59.6752 15.6956 282° West 486 559 34,000  Level FlightAware ADS-B
Sun 08:18:31 AM 59.6903 15.5653 282° West 485 558 34,000  Level FlightAware ADS-B
Sun 08:19:15 AM 59.7125 15.3716 282° West 487 560 34,000  Level FlightAware ADS-B
Sun 08:19:45 AM 59.7272 15.2424 282° West 488 562 34,000  Level FlightAware ADS-B
Sun 08:20:15 AM 59.7420 15.1100 282° West 488 562 34,000  Level FlightAware ADS-B
Sun 08:20:45 AM 59.7565 14.9805 282° West 488 562 34,000  Level FlightAware ADS-B
Sun 08:21:15 AM 59.7708 14.8492 281° West 487 560 34,000  Level FlightAware ADS-B
Sun 08:21:45 AM 59.7852 14.7170 281° West 487 560 34,000  Level FlightAware ADS-B
Sun 08:22:30 AM 59.8062 14.5212 282° West 489 563 34,000  Level FlightAware ADS-B
Sun 08:23:00 AM 59.8204 14.3875 282° West 488 562 34,000  Level FlightAware ADS-B
Sun 08:23:43 AM 59.8400 14.2011 282° West 486 559 34,000  Level FlightAware ADS-B
Sun 08:24:30 AM 59.8612 13.9950 281° West 484 557 34,000  Level FlightAware ADS-B
Sun 08:25:00 AM 59.8742 13.8662 281° West 484 557 34,000  Level FlightAware ADS-B
Sun 08:25:46 AM 59.8942 13.6677 280° West 482 555 34,000  Level FlightAware ADS-B
Sun 08:26:16 AM 59.9072 13.5359 280° West 482 555 34,000  Level FlightAware ADS-B
Sun 08:26:47 AM 59.9202 13.4033 280° West 481 554 34,000  Level FlightAware ADS-B
Sun 08:27:31 AM 59.9389 13.2096 280° West 483 556 34,000  Level FlightAware ADS-B
Sun 08:28:02 AM 59.9571 13.0771 288° West 490 564 34,000  Level FlightAware ADS-B
Sun 08:28:46 AM 59.9860 12.8846 286° West 488 562 34,000  Level FlightAware ADS-B
Sun 08:29:16 AM 60.0053 12.7545 286° West 488 562 34,000  Level FlightAware ADS-B
Sun 08:29:46 AM 60.0242 12.6260 285° West 489 563 34,000  Level FlightAware ADS-B
Sun 08:30:17 AM 60.0437 12.4927 285° West 489 563 34,000  Level FlightAware ADS-B
Sun 08:31:01 AM 60.0716 12.2997 285° West 489 563 34,000  Level FlightAware ADS-B
Sun 08:31:31 AM 60.0905 12.1676 285° West 490 564 34,000  Level FlightAware ADS-B
Sun 08:32:15 AM 60.1176 11.9762 286° West 494 568 34,000  Level FlightAware ADS-B
Sun 08:32:47 AM 60.1371 11.8376 286° West 494 568 34,000  Level FlightAware ADS-B
Sun 08:33:25 AM 60.1604 11.6696 286° West 494 568 34,000  Level FlightAware ADS-B
Sun 08:34:01 AM 60.1821 11.5115 285° West 495 570 34,000  Level FlightAware ADS-B
Sun 08:34:31 AM 60.2003 11.3779 285° West 494 568 34,000  Level FlightAware ADS-B
Sun 08:35:01 AM 60.2181 11.2458 285° West 494 568 34,000  Level FlightAware ADS-B
Sun 08:35:31 AM 60.2361 11.1118 285° West 495 570 34,000  Level FlightAware ADS-B
Sun 08:36:01 AM 60.2538 10.9785 285° West 495 570 34,000  Level FlightAware ADS-B
Sun 08:36:45 AM 60.2792 10.7852 284° West 493 567 34,000  Level FlightAware ADS-B
Sun 08:37:31 AM 60.3059 10.5790 284° West 495 570 34,000  Level FlightAware ADS-B
Sun 08:38:16 AM 60.3317 10.3773 284° West 496 571 34,000  Level FlightAware ADS-B
Sun 08:38:55 AM 60.3539 10.2021 283° West 496 571 34,000  Level FlightAware ADS-B
Sun 08:39:47 AM 60.3825 9.9718 283° West 497 572 34,000  Level FlightAware ADS-B
Sun 08:40:30 AM 60.4062 9.7786 283° West 497 572 34,000  Level FlightAware ADS-B
Sun 08:41:01 AM 60.4238 9.6334 284° West 498 573 34,000  Level FlightAware ADS-B
Sun 08:41:31 AM 60.4399 9.4998 284° West 498 573 34,000  Level FlightAware ADS-B
Sun 08:42:09 AM 60.4604 9.3276 284° West 497 572 34,000  Level FlightAware ADS-B
Sun 08:42:45 AM 60.4794 9.1667 283° West 498 573 34,000  Level FlightAware ADS-B
Sun 08:45:00 AM 60.5496 8.5532 283° West 499 574 34,000  Level FlightAware ADS-B
Sun 08:47:00 AM 60.6031 8.0563 283° West  Level Estimated
Sun 08:48:00 AM 60.6292 7.8073 282° West  Level Estimated
Sun 08:49:00 AM 60.6548 7.5579 282° West  Level Estimated
Sun 08:50:00 AM 60.6799 7.3081 282° West  Level Estimated
Sun 08:51:00 AM 60.7046 7.0579 281° West  Level Estimated
Sun 08:52:00 AM 60.7288 6.8073 281° West  Level Estimated
Sun 08:53:00 AM 60.7525 6.5563 281° West  Level Estimated
Sun 08:54:00 AM 60.7758 6.3050 281° West  Level Estimated
Sun 08:55:00 AM 60.7986 6.0533 281° West  Level Estimated
Sun 08:56:00 AM 60.8209 5.8013 280° West  Level Estimated
Sun 08:57:00 AM 60.8428 5.5489 280° West  Level Estimated
Sun 08:58:00 AM 60.8642 5.2962 280° West  Level Estimated
Sun 08:59:00 AM 60.8851 5.0431 280° West  Level Estimated
Sun 09:00:00 AM 60.9055 4.7897 280° West  Level Estimated
Sun 09:01:00 AM 60.9254 4.5360 279° West  Level Estimated
Sun 09:02:00 AM 60.9449 4.2820 279° West  Level Estimated
Sun 09:03:00 AM 60.9639 4.0276 279° West  Level Estimated
Sun 09:04:00 AM 60.9824 3.7730 279° West  Level Estimated
Sun 09:05:00 AM 61.0005 3.5181 278° West  Level Estimated
Sun 09:06:00 AM 61.0180 3.2629 278° West  Level Estimated
Sun 09:07:00 AM 61.0351 3.0074 278° West  Level Estimated
Sun 09:08:00 AM 61.0517 2.7516 278° West  Level Estimated
Sun 09:09:00 AM 61.0678 2.4956 278° West  Level Estimated
Sun 09:10:00 AM 61.0834 2.2393 277° West  Level Estimated
Sun 09:11:00 AM 61.0986 1.9828 277° West  Level Estimated
Sun 09:12:00 AM 61.1132 1.7260 277° West  Level Estimated
Sun 09:13:00 AM 61.1274 1.4690 277° West  Level Estimated
Sun 09:14:00 AM 61.1410 1.2117 276° West  Level Estimated
Sun 09:15:00 AM 61.1542 0.9543 276° West  Level Estimated
Sun 09:16:00 AM 61.1669 0.6966 276° West  Level Estimated
Sun 09:17:00 AM 61.1791 0.4387 276° West  Level Estimated
Sun 09:18:00 AM 61.1908 0.1807 275° West  Level Estimated
Sun 09:19:00 AM 61.2021 -0.0776 275° West  Level Estimated
Sun 09:20:00 AM 61.2128 -0.3360 275° West  Level Estimated
Sun 09:21:00 AM 61.2230 -0.5946 275° West  Level Estimated
Sun 09:22:00 AM 61.2328 -0.8534 275° West  Level Estimated
Sun 09:23:00 AM 61.2421 -1.1123 274° West  Level Estimated
Sun 09:24:00 AM 61.2508 -1.3714 274° West  Level Estimated
Sun 09:25:00 AM 61.2591 -1.6306 274° West  Level Estimated
Sun 09:26:00 AM 61.2669 -1.8900 274° West  Level Estimated
Sun 09:27:00 AM 61.2741 -2.1494 273° West  Level Estimated
Sun 09:28:00 AM 61.2809 -2.4090 273° West  Level Estimated
Sun 09:29:00 AM 61.2872 -2.6687 273° West  Level Estimated
Sun 09:30:00 AM 61.2930 -2.9285 273° West  Level Estimated
Sun 09:31:00 AM 61.2983 -3.1884 273° West  Level Estimated
Sun 09:32:00 AM 61.3031 -3.4484 272° West  Level Estimated
Sun 09:33:00 AM 61.3074 -3.7084 272° West  Level Estimated
Sun 09:34:00 AM 61.3112 -3.9685 272° West  Level Estimated
Sun 09:35:00 AM 61.3145 -4.2287 272° West  Level Estimated
Sun 09:36:00 AM 61.3173 -4.4889 271° West  Level Estimated
Sun 09:37:00 AM 61.3196 -4.7492 271° West  Level Estimated
Sun 09:38:00 AM 61.3214 -5.0095 271° West  Level Estimated
Sun 09:39:00 AM 61.3227 -5.2698 271° West  Level Estimated
Sun 09:40:00 AM 61.3235 -5.5302 270° West  Level Estimated
Sun 09:41:00 AM 61.3239 -5.7905 270° West  Level Estimated
Sun 09:42:00 AM 61.3237 -6.0509 270° West  Level Estimated
Sun 09:43:00 AM 61.3230 -6.3112 270° West  Level Estimated
Sun 09:44:00 AM 61.3218 -6.5715 270° West  Level Estimated
Sun 09:45:00 AM 61.3201 -6.8319 269° West  Level Estimated
Sun 09:46:00 AM 61.3180 -7.0921 269° West  Level Estimated
Sun 09:47:00 AM 61.3153 -7.3524 269° West  Level Estimated
Sun 09:48:00 AM 61.3121 -7.6126 269° West  Level Estimated
Sun 09:49:00 AM 61.3085 -7.8727 268° West  Level Estimated
Sun 09:50:00 AM 61.3043 -8.1328 268° West  Level Estimated
Sun 09:51:00 AM 61.2996 -8.3927 268° West  Level Estimated
Sun 09:52:00 AM 61.2945 -8.6527 268° West  Level Estimated
Sun 09:53:00 AM 61.2888 -8.9125 268° West  Level Estimated
Sun 09:54:00 AM 61.2827 -9.1722 267° West  Level Estimated
Sun 09:55:00 AM 61.2761 -9.4318 267° West  Level Estimated
Sun 09:56:00 AM 61.2689 -9.6913 267° West  Level Estimated
Sun 09:57:00 AM 61.2613 -9.9507 267° West  Level Estimated
Sun 09:58:00 AM 61.2531 -10.2100 266° West  Level Estimated
Sun 09:59:00 AM 61.2445 -10.4691 266° West  Level Estimated
Sun 10:00:00 AM 61.2354 -10.7281 266° West  Level Estimated
Sun 10:01:00 AM 61.2258 -10.9869 266° West  Level Estimated
Sun 10:02:00 AM 61.2157 -11.2455 265° West  Level Estimated
Sun 10:03:00 AM 61.2051 -11.5040 265° West  Level Estimated
Sun 10:04:00 AM 61.1940 -11.7623 265° West  Level Estimated
Sun 10:05:00 AM 61.1824 -12.0204 265° West  Level Estimated
Sun 10:06:00 AM 61.1703 -12.2783 265° West  Level Estimated
Sun 10:07:00 AM 61.1578 -12.5361 264° West  Level Estimated
Sun 10:08:00 AM 61.1447 -12.7936 264° West  Level Estimated
Sun 10:09:00 AM 61.1312 -13.0509 264° West  Level Estimated
Sun 10:10:00 AM 61.1172 -13.3080 264° West  Level Estimated
Sun 10:11:00 AM 61.1026 -13.5648 263° West  Level Estimated
Sun 10:12:00 AM 61.0876 -13.8214 263° West  Level Estimated
Sun 10:13:00 AM 61.0722 -14.0778 263° West  Level Estimated
Sun 10:14:00 AM 61.0562 -14.3338 263° West  Level Estimated
Sun 10:15:00 AM 61.0397 -14.5897 263° West  Level Estimated
Sun 10:16:00 AM 61.0228 -14.8453 262° West  Level Estimated
Sun 10:17:00 AM 61.0054 -15.1005 262° West  Level Estimated
Sun 10:18:00 AM 60.9874 -15.3556 262° West  Level Estimated
Sun 10:19:00 AM 60.9691 -15.6103 262° West  Level Estimated
Sun 10:20:00 AM 60.9502 -15.8647 261° West  Level Estimated
Sun 10:21:00 AM 60.9309 -16.1188 261° West  Level Estimated
Sun 10:22:00 AM 60.9110 -16.3726 261° West  Level Estimated
Sun 10:23:00 AM 60.8907 -16.6261 261° West  Level Estimated
Sun 10:24:00 AM 60.8700 -16.8792 261° West  Level Estimated
Sun 10:25:00 AM 60.8487 -17.1321 260° West  Level Estimated
Sun 10:26:00 AM 60.8270 -17.3846 260° West  Level Estimated
Sun 10:27:00 AM 60.8048 -17.6367 260° West  Level Estimated
Sun 10:28:00 AM 60.7821 -17.8885 260° West  Level Estimated
Sun 10:29:00 AM 60.7590 -18.1399 259° West  Level Estimated
Sun 10:30:00 AM 60.7354 -18.3909 259° West  Level Estimated
Sun 10:31:00 AM 60.7113 -18.6416 259° West  Level Estimated
Sun 10:32:00 AM 60.6867 -18.8919 259° West  Level Estimated
Sun 10:33:00 AM 60.6617 -19.1419 259° West  Level Estimated
Sun 10:34:00 AM 60.6362 -19.3914 258° West  Level Estimated
Sun 10:35:00 AM 60.6103 -19.6405 258° West  Level Estimated
Sun 10:36:00 AM 60.5839 -19.8892 258° West  Level Estimated
Sun 10:37:00 AM 60.5570 -20.1376 258° West  Level Estimated
Sun 10:38:00 AM 60.5297 -20.3855 257° West  Level Estimated
Sun 10:39:00 AM 60.5019 -20.6329 257° West  Level Estimated
Sun 10:40:00 AM 60.4737 -20.8800 257° West  Level Estimated
Sun 10:41:00 AM 60.4450 -21.1266 257° West  Level Estimated
Sun 10:42:00 AM 60.4159 -21.3728 257° West  Level Estimated
Sun 10:43:00 AM 60.3862 -21.6185 256° West  Level Estimated
Sun 10:44:00 AM 60.3562 -21.8638 256° West  Level Estimated
Sun 10:45:00 AM 60.3257 -22.1087 256° West  Level Estimated
Sun 10:46:00 AM 60.2947 -22.3530 256° West  Level Estimated
Sun 10:47:00 AM 60.2633 -22.5969 256° West  Level Estimated
Sun 10:48:00 AM 60.2315 -22.8404 255° West  Level Estimated
Sun 10:49:00 AM 60.1992 -23.0833 255° West  Level Estimated
Sun 10:50:00 AM 60.1664 -23.3258 255° West  Level Estimated
Sun 10:51:00 AM 60.1333 -23.5678 255° West  Level Estimated
Sun 10:52:00 AM 60.0996 -23.8093 254° West  Level Estimated
Sun 10:53:00 AM 60.0656 -24.0503 254° West  Level Estimated
Sun 10:54:00 AM 60.0311 -24.2908 254° West  Level Estimated
Sun 10:55:00 AM 59.9962 -24.5308 254° West  Level Estimated
Sun 10:56:00 AM 59.9608 -24.7703 254° West  Level Estimated
Sun 10:57:00 AM 59.9250 -25.0093 253° West  Level Estimated
Sun 10:58:00 AM 59.8887 -25.2477 253° West  Level Estimated
Sun 10:59:00 AM 59.8521 -25.4857 253° West  Level Estimated
Sun 11:00:00 AM 59.8150 -25.7231 253° West  Level Estimated
Sun 11:01:00 AM 59.7775 -25.9600 253° West  Level Estimated
Sun 11:02:00 AM 59.7395 -26.1963 252° West  Level Estimated
Sun 11:03:00 AM 59.7012 -26.4321 252° West  Level Estimated
Sun 11:04:00 AM 59.6624 -26.6674 252° West  Level Estimated
Sun 11:05:00 AM 59.6232 -26.9021 252° West  Level Estimated
Sun 11:06:00 AM 59.5836 -27.1362 252° West  Level Estimated
Sun 11:07:00 AM 59.5435 -27.3699 251° West  Level Estimated
Sun 11:08:00 AM 59.5031 -27.6029 251° West  Level Estimated
Sun 11:09:00 AM 59.4622 -27.8354 251° West  Level Estimated
Sun 11:10:00 AM 59.4209 -28.0673 251° West  Level Estimated
Sun 11:11:00 AM 59.3792 -28.2987 251° West  Level Estimated
Sun 11:12:00 AM 59.3371 -28.5295 250° West  Level Estimated
Sun 11:13:00 AM 59.2946 -28.7597 250° West  Level Estimated
Sun 11:14:00 AM 59.2517 -28.9893 250° West  Level Estimated
Sun 11:15:00 AM 59.2084 -29.2184 250° West  Level Estimated
Sun 11:16:00 AM 59.1646 -29.4469 250° West  Level Estimated
Sun 11:17:00 AM 59.1205 -29.6748 249° West  Level Estimated
Sun 11:18:00 AM 59.0760 -29.9021 249° West  Level Estimated
Sun 11:19:00 AM 59.0311 -30.1288 249° West  Level Estimated
Sun 11:20:00 AM 58.9858 -30.3549 249° West  Level Estimated
Sun 11:21:00 AM 58.9401 -30.5804 249° West  Level Estimated
Sun 11:22:00 AM 58.8940 -30.8053 248° West  Level Estimated
Sun 11:23:00 AM 58.8475 -31.0296 248° West  Level Estimated
Sun 11:24:00 AM 58.8007 -31.2533 248° West  Level Estimated
Sun 11:25:00 AM 58.7534 -31.4765 248° West  Level Estimated
Sun 11:26:00 AM 58.7058 -31.6990 248° West  Level Estimated
Sun 11:27:00 AM 58.6577 -31.9208 247° West  Level Estimated
Sun 11:28:00 AM 58.6093 -32.1421 247° West  Level Estimated
Sun 11:29:00 AM 58.5606 -32.3628 247° West  Level Estimated
Sun 11:30:00 AM 58.5114 -32.5828 247° West  Level Estimated
Sun 11:31:00 AM 58.4619 -32.8023 247° West  Level Estimated
Sun 11:32:00 AM 58.4120 -33.0211 247° West  Level Estimated
Sun 11:33:00 AM 58.3617 -33.2393 246° West  Level Estimated
Sun 11:34:00 AM 58.3110 -33.4568 246° West  Level Estimated
Sun 11:35:00 AM 58.2600 -33.6738 246° West  Level Estimated
Sun 11:36:00 AM 58.2086 -33.8901 246° West  Level Estimated
Sun 11:37:00 AM 58.1569 -34.1058 246° West  Level Estimated
Sun 11:38:00 AM 58.1048 -34.3208 245° Southwest  Level Estimated
Sun 11:39:00 AM 58.0523 -34.5353 245° Southwest  Level Estimated
Sun 11:40:00 AM 57.9995 -34.7491 245° Southwest  Level Estimated
Sun 11:41:00 AM 57.9463 -34.9622 245° Southwest  Level Estimated
Sun 11:42:00 AM 57.8927 -35.1747 245° Southwest  Level Estimated
Sun 11:43:00 AM 57.8388 -35.3866 245° Southwest  Level Estimated
Sun 11:44:00 AM 57.7846 -35.5979 244° Southwest  Level Estimated
Sun 11:45:00 AM 57.7300 -35.8085 244° Southwest  Level Estimated
Sun 11:46:00 AM 57.6750 -36.0185 244° Southwest  Level Estimated
Sun 11:47:00 AM 57.6197 -36.2279 244° Southwest  Level Estimated
Sun 11:48:00 AM 57.5641 -36.4366 244° Southwest  Level Estimated
Sun 11:49:00 AM 57.5081 -36.6447 243° Southwest  Level Estimated
Sun 11:50:00 AM 57.4518 -36.8521 243° Southwest  Level Estimated
Sun 11:51:00 AM 57.3951 -37.0589 243° Southwest  Level Estimated
Sun 11:52:00 AM 57.3381 -37.2650 243° Southwest  Level Estimated
Sun 11:53:00 AM 57.2808 -37.4706 243° Southwest  Level Estimated
Sun 11:54:00 AM 57.2231 -37.6754 243° Southwest  Level Estimated
Sun 11:55:00 AM 57.1651 -37.8797 242° Southwest  Level Estimated
Sun 11:56:00 AM 57.1068 -38.0833 242° Southwest  Level Estimated
Sun 11:57:00 AM 57.0481 -38.2862 242° Southwest  Level Estimated
Sun 11:58:00 AM 56.9891 -38.4885 242° Southwest  Level Estimated
Sun 11:59:00 AM 56.9298 -38.6902 242° Southwest  Level Estimated
Sun 12:00:00 PM 56.8702 -38.8912 242° Southwest  Level Estimated
Sun 12:01:00 PM 56.8102 -39.0916 241° Southwest  Level Estimated
Sun 12:02:00 PM 56.7499 -39.2913 241° Southwest  Level Estimated
Sun 12:03:00 PM 56.6893 -39.4904 241° Southwest  Level Estimated
Sun 12:04:00 PM 56.6284 -39.6889 241° Southwest  Level Estimated
Sun 12:05:00 PM 56.5672 -39.8867 241° Southwest  Level Estimated
Sun 12:06:00 PM 56.5056 -40.0839 241° Southwest  Level Estimated
Sun 12:07:00 PM 56.4437 -40.2804 240° Southwest  Level Estimated
Sun 12:08:00 PM 56.3816 -40.4763 240° Southwest  Level Estimated
Sun 12:08:27 PM 64.2000 -48.4667 239° Southwest 470 541 34,000  Level Gander Center
Sun 12:09:00 PM 56.3191 -40.6716 240° Southwest  Level Estimated
Sun 12:09:33 PM 64.1667 -48.7500 255° West 360 414 34,000  Level Gander Center
Sun 12:10:00 PM 56.2563 -40.8662 240° Southwest  Level Estimated
Sun 12:10:33 PM 64.1333 -49.0333 255° West 470 541 34,000  Level Gander Center
Sun 12:11:00 PM 56.1932 -41.0601 240° Southwest  Level Estimated
Sun 12:11:33 PM 64.1000 -49.3167 255° West 470 541 34,000  Level Gander Center
Sun 12:12:00 PM 56.1299 -41.2535 240° Southwest  Level Estimated
Sun 12:12:33 PM 64.0500 -49.6500 251° West 470 541 34,000  Level Gander Center
Sun 12:13:00 PM 56.0662 -41.4462 239° Southwest  Level Estimated
Sun 12:13:33 PM 64.0167 -49.8833 252° West 470 541 34,000  Level Gander Center
Sun 12:14:33 PM 63.9833 -50.2000 257° West 470 541 34,000  Level Gander Center
Sun 12:15:33 PM 63.9333 -50.4833 248° West 470 541 34,000  Level Gander Center
Sun 12:16:33 PM 63.8833 -50.7333 246° West 470 541 34,000  Level Gander Center
Sun 12:17:03 PM 63.8667 -50.8833 256° West 470 541 34,000  Level Gander Center
Sun 12:18:03 PM 63.8333 -51.1667 255° West 470 541 34,000  Level Gander Center
Sun 12:18:33 PM 63.8000 -51.3000 241° Southwest 470 541 34,000  Level Gander Center
Sun 12:19:03 PM 63.7833 -51.4500 256° West 470 541 34,000  Level Gander Center
Sun 12:20:03 PM 63.7333 -51.7000 246° West 470 541 34,000  Level Gander Center
Sun 12:20:33 PM 63.7000 -51.8500 243° Southwest 470 541 34,000  Level Gander Center
Sun 12:21:03 PM 63.6833 -51.9667 252° West 470 541 34,000  Level Gander Center
Sun 12:21:33 PM 63.6667 -52.1333 257° West 470 541 34,000  Level Gander Center
Sun 12:22:33 PM 63.6167 -52.4000 247° West 470 541 34,000  Level Gander Center
Sun 12:23:33 PM 63.5667 -52.6500 246° West 470 541 34,000  Level Gander Center
Sun 12:24:03 PM 63.5500 -52.8000 256° West 470 541 34,000  Level Gander Center
Sun 12:24:33 PM 63.5167 -52.9167 237° Southwest 470 541 34,000  Level Gander Center
Sun 12:25:33 PM 63.4667 -53.2000 249° West 470 541 34,000  Level Gander Center
Sun 12:26:33 PM 63.4333 -53.4667 254° West 470 541 34,000  Level Gander Center
Sun 12:27:03 PM 63.4000 -53.5833 237° Southwest 470 541 34,000  Level Gander Center
Sun 12:27:33 PM 63.3833 -53.7333 256° West 470 541 34,000  Level Gander Center
Sun 12:28:03 PM 63.3500 -53.8500 238° Southwest 470 541 34,000  Level Gander Center
Sun 12:29:03 PM 63.3000 -54.1333 249° West 470 541 34,000  Level Gander Center
Sun 12:29:33 PM 63.2667 -54.2500 238° Southwest 460 529 34,000  Level Gander Center
Sun 12:30:33 PM 63.2333 -54.5167 255° West 460 529 34,000  Level Gander Center
Sun 12:31:03 PM 63.2000 -54.6333 238° Southwest 460 529 34,000  Level Gander Center
Sun 12:32:03 PM 63.1500 -54.9000 248° West 460 529 34,000  Level Gander Center
Sun 12:33:03 PM 63.1000 -55.1667 248° West 460 529 34,000  Level Gander Center
Sun 12:34:03 PM 63.0500 -55.4000 245° Southwest 460 529 34,000  Level Gander Center
Sun 12:35:03 PM 63.0000 -55.6667 248° West 460 529 34,000  Level Gander Center
Sun 12:36:03 PM 62.9333 -55.9333 241° Southwest 460 529 34,000  Level Gander Center
Sun 12:37:03 PM 62.8833 -56.1500 243° Southwest 460 529 34,000  Level Gander Center
Sun 12:38:03 PM 62.8167 -56.4167 241° Southwest 460 529 34,000  Level Gander Center
Sun 12:39:03 PM 62.7667 -56.6500 245° Southwest 460 529 34,000  Level Gander Center
Sun 12:40:03 PM 62.6833 -56.8833 232° Southwest 460 529 34,000  Level Gander Center
Sun 12:40:33 PM 62.6667 -57.0167 255° West 460 529 34,000  Level Gander Center
Sun 12:41:03 PM 62.6333 -57.1333 238° Southwest 460 529 34,000  Level Gander Center
Sun 12:42:03 PM 62.5667 -57.3667 238° Southwest 460 529 34,000  Level Gander Center
Sun 12:43:03 PM 62.5167 -57.5833 244° Southwest 460 529 34,000  Level Gander Center
Sun 12:43:33 PM 62.4833 -57.7333 244° Southwest 460 529 34,000  Level Gander Center
Sun 12:44:33 PM 62.4167 -57.9500 236° Southwest 460 529 34,000  Level Gander Center
Sun 12:45:03 PM 62.3667 -58.0667 227° Southwest 460 529 34,000  Level Gander Center
Sun 12:45:33 PM 62.3333 -58.1833 238° Southwest 460 529 34,000  Level Gander Center
Sun 12:46:33 PM 62.2833 -58.4333 247° West 450 518 34,000  Level Gander Center
Sun 12:47:03 PM 62.2500 -58.5333 234° Southwest 450 518 34,000  Level Gander Center
Sun 12:47:33 PM 62.2167 -58.6500 239° Southwest 450 518 34,000  Level Gander Center
Sun 12:48:03 PM 62.1833 -58.7667 239° Southwest 450 518 34,000  Level Gander Center
Sun 12:49:03 PM 62.1167 -58.9833 237° Southwest 450 518 34,000  Level Gander Center
Sun 12:50:03 PM 62.0667 -59.2333 247° West 450 518 34,000  Level Gander Center
Sun 12:51:03 PM 62.0000 -59.4500 237° Southwest 450 518 34,000  Level Gander Center
Sun 12:51:33 PM 61.9667 -59.5500 235° Southwest 450 518 34,000  Level Gander Center
Sun 12:52:18 PM 61.9000 -59.6500 215° Southwest 450 518 34,000  Level Montreal Center
Sun 12:53:03 PM 61.8500 -59.8833 246° West 450 518 34,000  Level Gander Center
Sun 12:54:03 PM 61.7833 -60.1167 239° Southwest 450 518 34,000  Level Gander Center
Sun 12:55:03 PM 61.7167 -60.3333 237° Southwest 450 518 34,000  Level Gander Center
Sun 12:56:03 PM 61.6667 -60.5500 244° Southwest 450 518 34,000  Level Gander Center
Sun 12:57:03 PM 61.6000 -60.7667 237° Southwest 450 518 34,000  Level Gander Center
Sun 12:58:03 PM 61.5333 -61.0000 239° Southwest 450 518 34,000  Level Gander Center
Sun 12:59:03 PM 61.4667 -61.2167 237° Southwest 450 518 34,000  Level Gander Center
Sun 01:00:03 PM 61.3833 -61.4167 229° Southwest 450 518 34,000  Level Gander Center
Sun 01:01:03 PM 61.3167 -61.6333 237° Southwest 450 518 34,000  Level Gander Center
Sun 01:01:33 PM 61.2833 -61.7333 235° Southwest 450 518 34,000  Level Gander Center
Sun 01:02:33 PM 61.2167 -61.9667 239° Southwest 450 518 34,000  Level Gander Center
Sun 01:03:03 PM 61.1833 -62.0667 235° Southwest 450 518 34,000  Level Gander Center
Sun 01:04:03 PM 61.1167 -62.3167 241° Southwest 450 518 34,000  Level Gander Center
Sun 01:04:33 PM 61.0833 -62.3833 224° Southwest 450 518 34,000  Level Gander Center
Sun 01:05:33 PM 60.9833 -62.6167 229° Southwest 460 529 34,000  Level Gander Center
Sun 01:06:18 PM 60.9500 -62.7000 231° Southwest 450 518 34,000  Level Montreal Center
Sun 01:07:33 PM 60.8500 -63.0167 237° Southwest 460 529 34,000  Level Gander Center
Sun 01:08:18 PM 60.8000 -63.1500 232° Southwest 450 518 34,000  Level Montreal Center
Sun 01:09:18 PM 60.7333 -63.3500 236° Southwest 450 518 34,000  Level Montreal Center
Sun 01:10:03 PM 60.6833 -63.5500 243° Southwest 460 529 34,000  Level Gander Center
Sun 01:10:33 PM 60.6500 -63.6500 236° Southwest 460 529 34,000  Level Gander Center
Sun 01:11:03 PM 60.6167 -63.7833 243° Southwest 450 518 34,000  Level Gander Center
Sun 01:12:03 PM 60.5333 -63.9833 230° Southwest 460 529 34,000  Level Gander Center
Sun 01:12:33 PM 60.5000 -64.0833 236° Southwest 450 518 34,000  Level Gander Center
Sun 01:13:18 PM 60.4333 -64.1833 217° Southwest 450 518 34,000  Level Montreal Center
Sun 01:14:03 PM 60.3833 -64.3833 243° Southwest 450 518 34,000  Level Gander Center
Sun 01:15:03 PM 60.3167 -64.6000 238° Southwest 460 529 34,000  Level Gander Center
Sun 01:15:33 PM 60.2667 -64.7000 225° Southwest 460 529 34,000  Level Gander Center
Sun 01:16:03 PM 60.2333 -64.8000 236° Southwest 460 529 34,000  Level Gander Center
Sun 01:16:33 PM 60.2000 -64.9000 236° Southwest 460 529 34,000  Level Gander Center
Sun 01:17:03 PM 60.1667 -65.0000 236° Southwest 460 529 34,000  Level Gander Center
Sun 01:18:03 PM 60.0833 -65.2167 232° Southwest 460 529 34,000  Level Gander Center
Sun 01:19:03 PM 59.9667 -65.3667 213° Southwest 460 529 34,000  Level Gander Center
Sun 01:19:33 PM 59.9333 -65.4667 236° Southwest 460 529 34,000  Level Gander Center
Sun 01:20:18 PM 59.8667 -65.5333 207° Southwest 450 518 34,000  Level Montreal Center
Sun 01:21:18 PM 59.7667 -65.7000 220° Southwest 450 518 34,000  Level Montreal Center
Sun 01:22:18 PM 59.6667 -65.8500 217° Southwest 450 518 34,000  Level Montreal Center
Sun 01:23:18 PM 59.5833 -66.0167 225° Southwest 450 518 34,000  Level Montreal Center
Sun 01:24:18 PM 59.4833 -66.1833 220° Southwest 450 518 34,000  Level Montreal Center
Sun 01:25:18 PM 59.3833 -66.3333 217° Southwest 460 529 34,000  Level Montreal Center
Sun 01:26:18 PM 59.2833 -66.5000 220° Southwest 460 529 34,000  Level Montreal Center
Sun 01:27:18 PM 59.1833 -66.6500 218° Southwest 460 529 34,000  Level Montreal Center
Sun 01:29:03 PM 59.0167 -67.0167 229° Southwest 470 541 34,000  Level Gander Center
Sun 01:29:33 PM 58.9833 -67.0667 218° Southwest 470 541 34,000  Level Gander Center
Sun 01:30:18 PM 58.8833 -67.1667 207° Southwest 470 541 34,000  Level Montreal Center
Sun 01:31:18 PM 58.8000 -67.3167 223° Southwest 460 529 34,000  Level Montreal Center
Sun 01:32:18 PM 58.6833 -67.4667 214° Southwest 470 541 34,000  Level Montreal Center
Sun 01:33:18 PM 58.6000 -67.6167 223° Southwest 470 541 34,000  Level Montreal Center
Sun 01:34:18 PM 58.4833 -67.7833 217° Southwest 470 541 34,000  Level Montreal Center
Sun 01:35:03 PM 58.4167 -67.9667 235° Southwest 470 541 34,000  Level Gander Center
Sun 01:36:03 PM 58.3167 -68.1167 218° Southwest 470 541 34,000  Level Gander Center
Sun 01:37:03 PM 58.2167 -68.2833 221° Southwest 470 541 34,000  Level Gander Center
Sun 01:38:03 PM 58.1333 -68.4167 220° Southwest 470 541 34,000  Level Gander Center
Sun 01:38:41 PM 58.0500 -68.4500 192° South 480 552 34,000  Level Montreal Center
Sun 01:39:41 PM 57.9500 -68.6000 219° Southwest 470 541 34,000  Level Montreal Center
Sun 01:40:41 PM 57.8333 -68.7500 214° Southwest 470 541 34,000  Level Montreal Center
Sun 01:41:41 PM 57.7167 -68.9000 214° Southwest 470 541 34,000  Level Montreal Center
Sun 01:42:41 PM 57.6167 -69.0500 219° Southwest 470 541 34,000  Level Montreal Center
Sun 01:43:41 PM 57.5000 -69.1833 212° Southwest 470 541 34,000  Level Montreal Center
Sun 01:44:41 PM 57.4167 -69.3333 224° Southwest 470 541 34,000  Level Montreal Center
Sun 01:45:41 PM 57.3000 -69.4833 215° Southwest 470 541 34,000  Level Montreal Center
Sun 01:46:41 PM 57.1833 -69.6167 212° Southwest 470 541 34,000  Level Montreal Center
Sun 01:47:41 PM 57.1000 -69.7667 224° Southwest 470 541 34,000  Level Montreal Center
Sun 01:48:41 PM 56.9833 -69.9000 212° Southwest 470 541 34,000  Level Montreal Center
Sun 01:49:41 PM 56.8667 -70.0500 215° Southwest 470 541 34,000  Level Montreal Center
Sun 01:50:41 PM 56.7833 -70.1833 221° Southwest 470 541 34,000  Level Montreal Center
Sun 01:51:41 PM 56.6667 -70.3000 209° Southwest 470 541 34,000  Level Montreal Center
Sun 01:52:41 PM 56.5500 -70.4333 212° Southwest 470 541 34,000  Level Montreal Center
Sun 01:53:41 PM 56.4333 -70.5667 212° Southwest 470 541 34,000  Level Montreal Center
Sun 01:54:41 PM 56.3333 -70.7000 216° Southwest 480 552 34,000  Level Montreal Center
Sun 01:55:41 PM 56.2167 -70.8500 216° Southwest 480 552 34,000  Level Montreal Center
Sun 01:56:41 PM 56.1000 -70.9833 213° Southwest 480 552 34,000  Level Montreal Center
Sun 01:57:41 PM 55.9833 -71.1167 213° Southwest 480 552 34,000  Level Montreal Center
Sun 01:58:41 PM 55.9000 -71.2500 222° Southwest 470 541 34,000  Level Montreal Center
Sun 01:59:41 PM 55.7833 -71.3833 213° Southwest 480 552 34,000  Level Montreal Center
Sun 02:00:41 PM 55.6667 -71.5167 213° Southwest 480 552 34,000  Level Montreal Center
Sun 02:01:41 PM 55.5500 -71.6500 213° Southwest 470 541 34,000  Level Montreal Center
Sun 02:02:41 PM 55.4333 -71.7833 213° Southwest 480 552 34,000  Level Montreal Center
Sun 02:03:41 PM 55.3333 -71.9000 214° Southwest 480 552 34,000  Level Montreal Center
Sun 02:04:41 PM 55.2167 -72.0333 213° Southwest 480 552 34,000  Level Montreal Center
Sun 02:05:41 PM 55.1000 -72.1667 213° Southwest 480 552 34,000  Level Montreal Center
Sun 02:06:41 PM 54.9833 -72.3000 213° Southwest 480 552 34,000  Level Montreal Center
Sun 02:07:41 PM 54.8667 -72.4167 210° Southwest 480 552 34,000  Level Montreal Center
Sun 02:08:41 PM 54.7667 -72.5500 218° Southwest 480 552 34,000  Level Montreal Center
Sun 02:09:41 PM 54.6667 -72.6667 214° Southwest 480 552 34,000  Level Montreal Center
Sun 02:10:41 PM 54.5500 -72.8000 214° Southwest 480 552 34,000  Level Montreal Center
Sun 02:11:41 PM 54.4333 -72.9167 210° Southwest 480 552 34,000  Level Montreal Center
Sun 02:12:41 PM 54.3000 -73.0500 210° Southwest 480 552 34,000  Level Montreal Center
Sun 02:13:41 PM 54.1833 -73.1667 210° Southwest 480 552 34,000  Level Montreal Center
Sun 02:14:41 PM 54.0833 -73.3000 218° Southwest 480 552 34,000  Level Montreal Center
Sun 02:15:41 PM 53.9667 -73.4167 210° Southwest 480 552 34,000  Level Montreal Center
Sun 02:16:41 PM 53.8500 -73.5333 211° Southwest 480 552 34,000  Level Montreal Center
Sun 02:17:41 PM 53.7333 -73.6500 211° Southwest 480 552 34,000  Level Montreal Center
Sun 02:18:41 PM 53.6167 -73.7833 214° Southwest 480 552 34,000  Level Montreal Center
Sun 02:19:41 PM 53.5000 -73.8667 203° Southwest 480 552 34,000  Level Montreal Center
Sun 02:20:41 PM 53.3667 -73.9833 208° Southwest 490 564 34,000  Level Montreal Center
Sun 02:21:41 PM 53.2500 -74.0833 207° Southwest 490 564 34,000  Level Montreal Center
Sun 02:22:41 PM 53.1333 -74.1667 203° Southwest 490 564 34,000  Level Montreal Center
Sun 02:23:41 PM 53.0000 -74.2833 208° Southwest 490 564 34,000  Level Montreal Center
Sun 02:24:41 PM 52.8833 -74.4000 211° Southwest 490 564 34,000  Level Montreal Center
Sun 02:25:41 PM 52.7667 -74.4833 203° Southwest 490 564 34,000  Level Montreal Center
Sun 02:26:41 PM 52.6167 -74.5833 202° Southwest 490 564 34,000  Level Montreal Center
Sun 02:27:41 PM 52.5167 -74.7000 215° Southwest 490 564 34,000  Level Montreal Center
Sun 02:28:41 PM 52.3833 -74.7833 201° Southwest 490 564 34,000  Level Montreal Center
Sun 02:29:41 PM 52.2667 -74.8667 204° Southwest 470 541 34,000  Level Montreal Center
Sun 02:30:41 PM 52.1333 -74.9833 208° Southwest 490 564 34,000  Level Montreal Center
Sun 02:31:41 PM 52.0000 -75.0833 205° Southwest 500 575 34,000  Level Montreal Center
Sun 02:32:41 PM 51.8833 -75.1667 204° Southwest 500 575 34,000  Level Montreal Center
Sun 02:33:41 PM 51.7500 -75.2833 208° Southwest 500 575 34,000  Level Montreal Center
Sun 02:34:41 PM 51.6333 -75.3667 204° Southwest 500 575 34,000  Level Montreal Center
Sun 02:35:41 PM 51.5167 -75.4833 212° Southwest 500 575 34,000  Level Montreal Center
Sun 02:36:41 PM 51.3833 -75.5667 201° Southwest 510 587 34,000  Level Montreal Center
Sun 02:37:41 PM 51.2500 -75.6667 205° Southwest 500 575 34,000  Level Montreal Center
Sun 02:38:41 PM 51.1167 -75.7500 201° Southwest 500 575 34,000  Level Montreal Center
Sun 02:39:41 PM 51.0000 -75.8500 208° Southwest 500 575 34,000  Level Montreal Center
Sun 02:40:41 PM 50.8667 -75.9333 202° Southwest 500 575 34,000  Level Montreal Center
Sun 02:41:41 PM 50.7500 -76.0500 212° Southwest 500 575 34,000  Level Montreal Center
Sun 02:42:41 PM 50.6167 -76.1167 198° South 500 575 34,000  Level Montreal Center
Sun 02:43:41 PM 50.5000 -76.2333 212° Southwest 500 575 34,000  Level Montreal Center
Sun 02:44:41 PM 50.3667 -76.3000 198° South 500 575 34,000  Level Montreal Center
Sun 02:45:41 PM 50.2500 -76.4167 213° Southwest 500 575 34,000  Level Montreal Center
Sun 02:46:41 PM 50.1000 -76.4833 196° South 500 575 34,000  Level Montreal Center
Sun 02:47:41 PM 49.9833 -76.6000 213° Southwest 490 564 34,000  Level Montreal Center
Sun 02:48:41 PM 49.8500 -76.6667 198° South 490 564 34,000  Level Montreal Center
Sun 02:49:41 PM 49.7333 -76.7667 209° Southwest 490 564 34,000  Level Montreal Center
Sun 02:50:41 PM 49.6167 -76.8500 205° Southwest 500 575 34,000  Level Montreal Center
Sun 02:51:41 PM 49.4833 -76.9500 206° Southwest 480 552 34,000  Level Montreal Center
Sun 02:52:41 PM 49.3500 -77.0167 198° South 510 587 34,000  Level Montreal Center
Sun 02:53:41 PM 49.2333 -77.1167 209° Southwest 480 552 34,000  Level Montreal Center
Sun 02:54:41 PM 49.1167 -77.2000 205° Southwest 500 575 34,000  Level Montreal Center
Sun 02:55:41 PM 48.9833 -77.3000 206° Southwest 490 564 34,000  Level Montreal Center
Sun 02:56:41 PM 48.8500 -77.3667 198° South 490 564 34,000  Level Montreal Center
Sun 02:57:41 PM 48.7167 -77.4667 206° Southwest 490 564 34,000  Level Montreal Center
Sun 02:58:41 PM 48.6000 -77.5500 205° Southwest 490 564 34,000  Level Montreal Center
Sun 02:59:41 PM 48.4667 -77.6167 198° South 490 564 34,000  Level Montreal Center
Sun 03:00:41 PM 48.3500 -77.7167 210° Southwest 490 564 34,000  Level Montreal Center
Sun 03:01:41 PM 48.2333 -77.7833 201° Southwest 490 564 34,000  Level Montreal Center
Sun 03:02:41 PM 48.1000 -77.8500 198° South 490 564 34,000  Level Montreal Center
Sun 03:03:41 PM 47.9667 -77.9500 207° Southwest 490 564 34,000  Level Montreal Center
Sun 03:04:41 PM 47.8333 -78.0167 199° South 490 564 34,000  Level Montreal Center
Sun 03:05:41 PM 47.7167 -78.0833 201° Southwest 500 575 34,000  Level Montreal Center
Sun 03:06:41 PM 47.5833 -78.1500 199° South 500 575 34,000  Level Montreal Center
Sun 03:07:41 PM 47.4667 -78.2333 206° Southwest 500 575 34,000  Level Montreal Center
Sun 03:08:41 PM 47.3333 -78.3167 203° Southwest 500 575 34,000  Level Montreal Center
Sun 03:14:36 PM 46.5569 -78.7437 201° Southwest 509 586 34,000  Level FlightAware ADS-B (CYYZ)
Sun 03:15:08 PM 46.4790 -78.7866 201° Southwest 509 586 34,000  Level FlightAware ADS-B (CYYZ)
Sun 03:15:38 PM 46.4175 -78.8204 201° Southwest 510 587 34,000  Level FlightAware ADS-B (CYYZ)
Sun 03:16:08 PM 46.3469 -78.8591 201° Southwest 511 588 34,000  Level FlightAware ADS-B (CYYZ)
Sun 03:16:39 PM 46.2786 -78.8965 201° Southwest 510 587 34,000  Level FlightAware ADS-B (CYYZ)
Sun 03:17:08 PM 46.2148 -78.9313 201° Southwest 509 586 34,000  Level FlightAware ADS-B (CYYZ)
Sun 03:17:38 PM 46.1472 -78.9681 201° Southwest 508 585 34,000  Level FlightAware ADS-B (CYYZ)
Sun 03:18:08 PM 46.0832 -79.0027 201° Southwest 508 585 34,000  Level FlightAware ADS-B (CYYZ)
Sun 03:18:39 PM 46.0148 -79.0399 201° Southwest 508 585 34,000  Level FlightAware ADS-B (CYYZ)
Sun 03:19:08 PM 45.9515 -79.0740 201° Southwest 507 583 34,000  Level FlightAware ADS-B (CYYZ)
Sun 03:19:38 PM 45.8898 -79.1073 201° Southwest 507 583 34,000  Level FlightAware ADS-B (CYYZ)
Sun 03:20:08 PM 45.8205 -79.1444 201° Southwest 506 582 34,000  Level FlightAware ADS-B (CYYZ)
Sun 03:20:38 PM 45.7532 -79.1805 201° Southwest 505 581 34,000  Level FlightAware ADS-B (CYYZ)
Sun 03:21:07 PM 45.6902 -79.2142 201° Southwest 505 581 34,000  Level FlightAware ADS-B (CYYZ)
Sun 03:21:38 PM 45.6206 -79.2513 201° Southwest 506 582 34,000  Level FlightAware ADS-B (CYYZ)
Sun 03:22:08 PM 45.5554 -79.2859 201° Southwest 506 582 34,000  Level FlightAware ADS-B (CYYZ)
Sun 03:22:38 PM 45.4893 -79.3210 201° Southwest 507 583 34,000  Level FlightAware ADS-B (CYYZ)
Sun 03:23:08 PM 45.4241 -79.3555 201° Southwest 507 583 34,000  Level FlightAware ADS-B (CYYZ)
Sun 03:23:38 PM 45.3602 -79.3892 201° Southwest 508 585 34,000  Level FlightAware ADS-B (CYYZ)
Sun 03:24:08 PM 45.2958 -79.4230 201° Southwest 508 585 34,000  Level FlightAware ADS-B (CYYZ)
Sun 03:24:38 PM 45.2258 -79.4599 201° Southwest 507 583 34,000  Level FlightAware ADS-B (CYYZ)
Sun 03:25:08 PM 45.1618 -79.4933 201° Southwest 507 583 34,000  Level FlightAware ADS-B (CYYZ)
Sun 03:25:38 PM 45.0944 -79.5286 201° Southwest 508 585 34,000  Level FlightAware ADS-B (CYYZ)
Sun 03:26:08 PM 45.0262 -79.5641 201° Southwest 508 585 34,000  Level FlightAware ADS-B (CYYZ)
Sun 03:26:39 PM 44.9617 -79.5976 201° Southwest 509 586 34,000  Level FlightAware ADS-B (CYYZ)
Sun 03:27:09 PM 44.8939 -79.6328 201° Southwest 509 586 34,000  Level FlightAware ADS-B (CYYZ)
Sun 03:27:38 PM 44.8791 -79.6404 200° South 508 585 34,000  Level FlightAware ADS-B (EPLB / LUZ)
Sun 03:27:39 PM 44.8275 -79.6671 201° Southwest 508 585 34,000  Level FlightAware ADS-B (CYYZ)
Sun 03:28:09 PM 44.7612 -79.7013 201° Southwest 508 585 34,000  Level FlightAware ADS-B (CYYZ)
Sun 03:28:21 PM 44.7383 -79.7131 200° South 508 585 34,000  Level FlightAware ADS-B (EPLB / LUZ)
Sun 03:28:38 PM 44.6982 -79.7337 201° Southwest 509 586 34,000  Level FlightAware ADS-B (CYYZ)
Sun 03:29:05 PM 44.6413 -79.7631 201° Southwest 509 586 34,000  Level FlightAware ADS-B (EPLB / LUZ)
Sun 03:29:08 PM 44.6318 -79.7683 202° Southwest 508 585 34,000  Level FlightAware ADS-B (CYYZ)
Sun 03:29:20 PM 44.6516 -79.7577 202° Southwest 509 586 34,000  Level FlightAware ADS-B (CYKF)
Sun 03:29:43 PM 44.5556 -79.8171 209° Southwest 506 582 34,000  Level FlightAware ADS-B (CYYZ)
Sun 03:30:06 PM 44.5148 -79.8507 213° Southwest 503 579 34,000  Level FlightAware ADS-B (EPLB / LUZ)
Sun 03:30:34 PM 44.4579 -79.9033 214° Southwest 500 575 34,000  Level FlightAware ADS-B (CYYZ)
Sun 03:30:50 PM 44.4288 -79.9305 214° Southwest 500 575 34,000  Level FlightAware ADS-B (EPLB / LUZ)
Sun 03:31:03 PM 44.3996 -79.9575 214° Southwest 499 574 34,000  Level FlightAware ADS-B (CYYZ)
Sun 03:31:29 PM 44.3506 -80.0020 213° Southwest 500 575 34,000  Level FlightAware ADS-B (CYKF)
Sun 03:31:33 PM 44.3410 -80.0106 213° Southwest 499 574 34,000  Level FlightAware ADS-B (CYYZ)
Sun 03:32:04 PM 44.2827 -80.0629 213° Southwest 497 572 34,000  Level FlightAware ADS-B (CYYZ)
Sun 03:32:17 PM 44.2683 -80.0759 213° Southwest 498 573 34,000  Level FlightAware ADS-B (EPLB / LUZ)
Sun 03:32:34 PM 44.2254 -80.1142 213° Southwest 497 572 34,000  Level FlightAware ADS-B (CYYZ)
Sun 03:32:58 PM 44.1784 -80.1561 213° Southwest 497 572 34,000  Level FlightAware ADS-B (EPLB / LUZ)
Sun 03:33:04 PM 44.1676 -80.1657 213° Southwest 496 571 34,000  Level FlightAware ADS-B (CYYZ)
Sun 03:33:30 PM 44.1162 -80.2115 213° Southwest 496 571 34,000  Level FlightAware ADS-B (CYKF)
Sun 03:33:34 PM 44.1104 -80.2166 213° Southwest 495 570 34,000  Level FlightAware ADS-B (CYYZ)
Sun 03:34:04 PM 44.0524 -80.2681 213° Southwest 495 570 34,000  Level FlightAware ADS-B (CYYZ)
Sun 03:34:23 PM 44.0137 -80.3023 213° Southwest 495 570 34,000  Level FlightAware ADS-B (EPLB / LUZ)
Sun 03:34:33 PM 43.9935 -80.3202 213° Southwest 494 568 34,000  Level FlightAware ADS-B (CYYZ)
Sun 03:35:04 PM 43.9380 -80.3692 213° Southwest 493 567 34,000  Level FlightAware ADS-B (CYYZ)
Sun 03:35:05 PM 43.9327 -80.3739 213° Southwest 494 568 34,000  Level FlightAware ADS-B (EPLB / LUZ)
Sun 03:35:34 PM 43.8773 -80.4227 213° Southwest 493 567 34,000  Level FlightAware ADS-B (CYYZ)
Sun 03:35:36 PM 43.8736 -80.4259 213° Southwest 493 567 34,000  Level FlightAware ADS-B (ETHL)
Sun 03:36:04 PM 43.8196 -80.4735 213° Southwest 491 565 34,000  Level FlightAware ADS-B (CYYZ)
Sun 03:36:09 PM 43.8101 -80.4818 213° Southwest 492 566 34,000  Level FlightAware ADS-B (EPLB / LUZ)
Sun 03:36:33 PM 43.7626 -80.5234 213° Southwest 491 565 34,000  Level FlightAware ADS-B (CYYZ)
Sun 03:36:44 PM 43.7426 -80.5409 212° Southwest 491 565 34,000  Level FlightAware ADS-B (ETHL)
Sun 03:37:03 PM 43.7046 -80.5741 213° Southwest 490 564 34,000  Level FlightAware ADS-B (CYYZ)
Sun 03:37:15 PM 43.6835 -80.5926 212° Southwest 490 564 34,000  Level FlightAware ADS-B (ETHL)
Sun 03:37:33 PM 43.6503 -80.6216 213° Southwest 489 563 34,000  Level FlightAware ADS-B (CYYZ)
Sun 03:38:03 PM 43.5906 -80.6736 213° Southwest 487 560 34,000  Level FlightAware ADS-B (CYYZ)
Sun 03:38:17 PM 43.6835 -80.5926 212° Southwest 487 560 34,000  Level FlightAware ADS-B (ETHL)
Sun 03:38:33 PM 43.5345 -80.7222 213° Southwest 487 560 34,000  Level FlightAware ADS-B (CYYZ)
Sun 03:39:03 PM 43.4770 -80.7722 213° Southwest 485 558 34,000  Level FlightAware ADS-B (CYYZ)
Sun 03:39:18 PM 43.4495 -80.7960 212° Southwest 484 557 34,000  Level FlightAware ADS-B (EPLB / LUZ)
Sun 03:39:34 PM 43.4207 -80.8208 213° Southwest 484 557 34,000  Level FlightAware ADS-B (CYYZ)
Sun 03:40:03 PM 43.3629 -80.8707 213° Southwest 484 557 34,000  Level FlightAware ADS-B (CYYZ)
Sun 03:40:04 PM 43.3613 -80.8720 212° Southwest 486 559 34,000  Level FlightAware ADS-B (ETHL)
Sun 03:40:33 PM 43.3080 -80.9180 213° Southwest 484 557 34,000  Level FlightAware ADS-B (CYYZ)
Sun 03:40:49 PM 43.2942 -80.9298 212° Southwest 484 557 34,000  Level FlightAware ADS-B (EPLB / LUZ)
Sun 03:41:03 PM 43.2493 -80.9685 213° Southwest 485 558 34,000  Level FlightAware ADS-B (CYYZ)
Sun 03:41:27 PM 43.2101 -81.0021 212° Southwest 484 557 34,000  Level FlightAware ADS-B (EPLB / LUZ)
Sun 03:41:34 PM 43.1945 -81.0154 213° Southwest 484 557 34,000  Level FlightAware ADS-B (CYYZ)
Sun 03:42:04 PM 43.1359 -81.0656 213° Southwest 484 557 34,000  Level FlightAware ADS-B (CYYZ)
Sun 03:42:13 PM 43.1254 -81.0745 212° Southwest 485 558 34,000  Level FlightAware ADS-B (EPLB / LUZ)
Sun 03:42:34 PM 43.0788 -81.1144 213° Southwest 484 557 34,000  Level FlightAware ADS-B (CYYZ)
Sun 03:42:52 PM 43.0548 -81.1343 207° Southwest 486 559 34,000  Level FlightAware ADS-B (EPLB / LUZ)
Sun 03:43:03 PM 43.0197 -81.1587 206° Southwest 486 559 34,000  Level FlightAware ADS-B (CYYZ)
Sun 03:43:31 PM 42.9802 -81.1821 204° Southwest 485 558 34,000  Level FlightAware ADS-B (CYKF)
Sun 03:43:39 PM 42.9475 -81.2024 206° Southwest 484 557 34,000  Level FlightAware ADS-B (CYYZ)
Sun 03:44:09 PM 42.8864 -81.2420 206° Southwest 483 556 34,000  Level FlightAware ADS-B (CYYZ)
Sun 03:44:31 PM 42.8760 -81.2486 205° Southwest 482 555 34,000  Level FlightAware ADS-B (CYKF)
Sun 03:44:39 PM 42.8259 -81.2800 205° Southwest 481 554 34,000  Level FlightAware ADS-B (CYYZ)
Sun 03:45:06 PM 42.7708 -81.3141 204° Southwest 480 552 34,000  Level FlightAware ADS-B (EPLB / LUZ)
Sun 03:45:09 PM 42.7669 -81.3165 205° Southwest 479 551 34,000  Level FlightAware ADS-B (CYYZ)
Sun 03:45:38 PM 42.7053 -81.3543 205° Southwest 479 551 34,000  Level FlightAware ADS-B (CYYZ)
Sun 03:45:46 PM 42.7005 -81.3572 204° Southwest 479 551 34,000  Level FlightAware ADS-B (EPLB / LUZ)
Sun 03:46:08 PM 42.6459 -81.3907 205° Southwest 479 551 34,000  Level FlightAware ADS-B (CYYZ)
Sun 03:46:31 PM 42.6953 -81.3604 204° Southwest 479 551 34,000  Level FlightAware ADS-B (CYKF)
Sun 03:46:38 PM 42.5880 -81.4260 205° Southwest 478 550 34,000  Level FlightAware ADS-B (CYYZ)
Sun 03:47:09 PM 42.5258 -81.4639 205° Southwest 478 550 34,000  Level FlightAware ADS-B (CYYZ)
Sun 03:47:38 PM 42.4664 -81.5001 205° Southwest 479 551 34,000  Level FlightAware ADS-B (CYYZ)
Sun 03:48:09 PM 42.4034 -81.5384 205° Southwest 480 552 34,000  Level FlightAware ADS-B (CYYZ)
Sun 03:48:38 PM 42.3495 -81.5712 205° Southwest 481 554 34,000  Level FlightAware ADS-B (CYYZ)
Sun 03:49:09 PM 42.2854 -81.6100 205° Southwest 481 554 34,000  Level FlightAware ADS-B (CYYZ)
Sun 03:49:38 PM 42.2219 -81.6483 205° Southwest 478 550 34,000  Level FlightAware ADS-B (CYYZ)
Sun 03:50:07 PM 42.1617 -81.6846 205° Southwest 478 550 34,000  Level FlightAware ADS-B (CYYZ)
Sun 03:50:37 PM 42.1038 -81.7194 205° Southwest 478 550 34,000  Level FlightAware ADS-B (CYYZ)
Sun 03:50:59 PM 42.0561 -81.7481 205° Southwest 479 551 34,000  Level FlightAware ADS-B (CYYZ)
Sun 03:51:59 PM 41.9424 -81.8162 205° Southwest 477 549 34,000  Level FlightAware ADS-B (CYYZ)
Sun 03:52:38 PM 41.8598 -81.8656 205° Southwest 476 548 34,000  Level FlightAware ADS-B (CYYZ)
Sun 03:53:08 PM 41.7966 -81.9031 204° Southwest 474 545 34,000  Level FlightAware ADS-B (CYYZ)
Sun 03:53:39 PM 41.7460 -81.9332 204° Southwest 474 545 34,000  Level FlightAware ADS-B (CYYZ)
Sun 03:54:08 PM 41.6779 -81.9736 204° Southwest 474 545 34,000  Level FlightAware ADS-B (CYYZ)
Sun 03:54:38 PM 41.6166 -82.0099 204° Southwest 475 547 34,000  Level FlightAware ADS-B (CYYZ)
Sun 03:55:08 PM 41.5603 -82.0431 204° Southwest 475 547 34,000  Level FlightAware ADS-B (CYYZ)
Sun 03:55:38 PM 41.5006 -82.0783 204° Southwest 476 548 34,000  Level FlightAware ADS-B (CYYZ)
Sun 03:56:18 PM 41.4333 -82.1197 204° Southwest 474 545 34,000  Level Indianapolis Center
Sun 03:57:20 PM 41.3081 -82.1797 200° South 475 547 34,000  Level Indianapolis Center
Sun 03:58:21 PM 41.1775 -82.2264 195° South 482 555 34,000  Level Indianapolis Center
Sun 03:59:23 PM 41.0256 -82.2822 195° South 482 555 34,000  Level Indianapolis Center
Sun 04:00:25 PM 40.8947 -82.3281 195° South 483 556 34,000  Level Indianapolis Center
Sun 04:01:26 PM 40.7650 -82.3742 195° South 483 556 34,000  Level Indianapolis Center
Sun 04:07:29 PM 39.9696 -82.5999 184° South 487 560 34,000  Level FlightAware ADS-B
Sun 04:08:06 PM 39.8845 -82.6063 184° South 488 562 34,000  Level FlightAware ADS-B
Sun 04:08:39 PM 39.8070 -82.6117 184° South 488 562 34,000  Level FlightAware ADS-B
Sun 04:09:06 PM 39.7448 -82.6159 183° South 489 563 34,000  Level FlightAware ADS-B
Sun 04:09:10 PM 39.7573 -82.6151 184° South 488 562 34,000  Level FlightAware ADS-B
Sun 04:09:30 PM 39.7125 -82.6181 184° South 488 562 34,000  Level FlightAware ADS-B
Sun 04:09:43 PM 39.6591 -82.6217 183° South 489 563 34,000  Level FlightAware ADS-B
Sun 04:10:04 PM 39.6124 -82.6248 184° South 488 562 34,000  Level FlightAware ADS-B
Sun 04:10:21 PM 39.5728 -82.6274 183° South 490 564 34,000  Level FlightAware ADS-B
Sun 04:10:36 PM 39.5399 -82.6297 184° South 490 564 34,000  Level FlightAware ADS-B
Sun 04:10:53 PM 39.5099 -82.6317 183° South 491 565 34,000  Level FlightAware ADS-B
Sun 04:11:07 PM 39.4708 -82.6343 184° South 490 564 34,000  Level FlightAware ADS-B
Sun 04:11:25 PM 39.4283 -82.6371 183° South 490 564 34,000  Level FlightAware ADS-B
Sun 04:11:28 PM 39.4257 -82.6373 184° South 489 563 34,000  Level FlightAware ADS-B
Sun 04:12:06 PM 39.3426 -82.6429 183° South 487 560 34,000  Level FlightAware ADS-B
Sun 04:12:07 PM 39.3902 -82.6396 184° South 489 563 34,000  Level FlightAware ADS-B
Sun 04:12:38 PM 39.2649 -82.6481 183° South 487 560 34,000  Level FlightAware ADS-B
Sun 04:13:08 PM 39.1970 -82.6526 183° South 487 560 34,000  Level FlightAware ADS-B
Sun 04:13:51 PM 39.1015 -82.6589 183° South 487 560 34,000  Level FlightAware ADS-B
Sun 04:14:22 PM 39.0315 -82.6635 183° South 487 560 34,000  Level FlightAware ADS-B
Sun 04:15:04 PM 38.9363 -82.6698 183° South 486 559 34,000  Level FlightAware ADS-B
Sun 04:15:35 PM 38.8690 -82.6743 183° South 484 557 34,000  Level FlightAware ADS-B
Sun 04:16:18 PM 38.7737 -82.6805 183° South 484 557 34,000  Level FlightAware ADS-B
Sun 04:16:48 PM 38.7081 -82.6848 183° South 484 557 34,000  Level FlightAware ADS-B
Sun 04:17:18 PM 38.6387 -82.6894 183° South 484 557 34,000  Level FlightAware ADS-B
Sun 04:17:52 PM 38.5714 -82.6942 183° South 485 558 34,000  Level Indianapolis Center
Sun 04:18:54 PM 38.4375 -82.7031 183° South 484 557 34,000  Level Indianapolis Center
Sun 04:19:55 PM 38.3042 -82.7114 183° South 482 555 34,000  Level Indianapolis Center
Sun 04:20:57 PM 38.1717 -82.7197 183° South 480 552 34,000  Level Indianapolis Center
Sun 04:21:58 PM 38.0389 -82.7278 183° South 479 551 34,000  Level Indianapolis Center
Sun 04:23:00 PM 37.9053 -82.7383 184° South 479 551 34,000  Level Indianapolis Center
Sun 04:24:01 PM 37.7500 -82.7475 183° South 479 551 34,000  Level Indianapolis Center
Sun 04:25:03 PM 37.6225 -82.7919 195° South 477 549 34,000  Level Indianapolis Center
Sun 04:26:04 PM 37.5053 -82.8642 206° Southwest 471 542 34,000  Level Indianapolis Center
Sun 04:27:06 PM 37.3917 -82.9411 208° Southwest 469 540 34,000  Level Indianapolis Center
Sun 04:28:07 PM 37.2781 -83.0156 208° Southwest 464 534 34,000  Level Indianapolis Center
Sun 04:29:09 PM 37.1653 -83.0894 208° Southwest 464 534 34,000  Level Indianapolis Center
Sun 04:30:10 PM 37.0361 -83.1742 208° Southwest 457 526 34,000  Level Indianapolis Center
Sun 04:31:12 PM 36.9236 -83.2461 207° Southwest 457 526 34,000  Level Indianapolis Center
Sun 04:32:13 PM 36.8108 -83.3178 207° Southwest 457 526 34,000  Level Indianapolis Center
Sun 04:33:15 PM 36.6978 -83.3906 207° Southwest 457 526 34,000  Level Indianapolis Center
Sun 04:34:16 PM 36.5833 -83.4636 207° Southwest 458 527 34,000  Level Indianapolis Center
Sun 04:35:18 PM 36.4603 -83.5425 207° Southwest 462 532 34,000  Level Indianapolis Center
Sun 04:36:19 PM 36.3442 -83.6161 207° Southwest 463 533 34,000  Level Indianapolis Center
Sun 04:37:21 PM 36.2292 -83.6908 208° Southwest 463 533 34,000  Level Indianapolis Center
Sun 04:38:22 PM 36.1125 -83.7633 207° Southwest 464 534 34,000  Level Indianapolis Center
Sun 04:39:11 PM 36.0142 -83.8256 207° Southwest 467 537 34,000  Level Atlanta Center
Sun 04:40:11 PM 35.8956 -83.8900 204° Southwest 467 537 34,000  Level Atlanta Center
Sun 04:41:35 PM 35.1899 -84.0678 191° South 476 548 34,000  Level FlightAware ADS-B (KDZJ)
Sun 04:42:19 PM 35.0941 -84.0908 191° South 477 549 34,000  Level FlightAware ADS-B (KDZJ)
Sun 04:43:04 PM 34.9937 -84.1148 191° South 479 551 34,000  Level FlightAware ADS-B (KDZJ)
Sun 04:43:44 PM 34.9065 -84.1356 191° South 478 550 34,000  Level FlightAware ADS-B (KDZJ)
Sun 04:44:24 PM 34.8159 -84.1450 175° South 483 556 34,000  Level FlightAware ADS-B (KDZJ)
Sun 04:45:00 PM 34.7361 -84.1518 194° South 480 552 34,000  Level FlightAware ADS-B (KDZJ)
Sun 04:45:44 PM 34.6409 -84.1798 193° South 479 551 34,000  Level FlightAware ADS-B (KDZJ)
Sun 04:46:25 PM 34.5514 -84.1971 183° South 486 559 34,000  Level FlightAware ADS-B (KDZJ)
Sun 04:47:05 PM 34.4615 -84.1880 167° South 493 567 34,000  Level FlightAware ADS-B (KDZJ)
Sun 04:47:45 PM 34.3735 -84.1583 164° South 489 563 34,000  Level FlightAware ADS-B (KDZJ)
Sun 04:48:25 PM 34.2846 -84.1275 164° South 486 559 34,000  Level FlightAware ADS-B (KDZJ)
Sun 04:49:05 PM 34.1971 -84.0976 164° South 483 556 34,000  Level FlightAware ADS-B (KDZJ)
Sun 04:49:45 PM 34.1098 -84.0682 164° South 488 562 34,000  Level FlightAware ADS-B (KDZJ)
Sun 04:50:19 PM 34.0366 -84.0436 164° South 486 559 34,000  Level FlightAware ADS-B (KDZJ)
Sun 04:51:11 PM 34.4433 -84.1850 164° South 477 549 34,000  Level Atlanta Center
Sun 04:52:11 PM 34.3097 -84.1369 163° South 484 557 34,000  Level Atlanta Center
Sun 04:53:11 PM 34.1783 -84.0892 163° South 490 564 34,000  Level Atlanta Center
Sun 04:54:11 PM 34.0489 -84.0464 165° South 490 564 34,000  Level Atlanta Center
Sun 04:55:11 PM 33.9175 -84.0014 164° South 490 564 34,000 200 Level Atlanta Center
Sun 04:56:11 PM 33.7733 -83.9539 165° South 490 564 34,400 450 Climbing Atlanta Center
Sun 04:57:11 PM 33.6419 -83.9192 168° South 490 564 34,900 300 Climbing Atlanta Center
Sun 04:58:11 PM 33.5083 -83.9167 179° South 484 557 35,000 50 Climbing Atlanta Center
Sun 04:59:11 PM 33.3767 -83.9394 188° South 477 549 35,000  Level Atlanta Center
Sun 05:00:11 PM 33.2411 -83.9594 187° South 484 557 35,000  Level Atlanta Center
Sun 05:01:11 PM 33.1139 -83.9817 188° South 479 551 35,000  Level Atlanta Center
Sun 05:02:11 PM 32.9969 -84.0017 188° South 479 551 35,000  Level Atlanta Center
Sun 05:03:11 PM 32.8633 -84.0214 187° South 479 551 35,000  Level Atlanta Center
Sun 05:04:11 PM 32.7339 -84.0439 188° South 485 558 35,000  Level Atlanta Center
Sun 05:05:11 PM 32.6003 -84.0611 186° South 485 558 35,000  Level Atlanta Center
Sun 05:06:11 PM 32.4689 -84.0831 188° South 485 558 35,000  Level Atlanta Center
Sun 05:07:11 PM 32.3372 -84.1028 187° South 485 558 35,000  Level Atlanta Center
Sun 05:09:16 PM 32.0517 -84.1475 188° South 496 571 35,000  Level Jacksonville Center
Sun 05:10:16 PM 31.9181 -84.1678 187° South 496 571 35,000  Level Jacksonville Center
Sun 05:11:16 PM 31.7883 -84.1881 188° South 485 558 35,000  Level Jacksonville Center
Sun 05:17:23 PM 30.9801 -84.3102 187° South 475 547 35,000  Level FlightAware ADS-B (KONZ)
Sun 05:17:58 PM 30.9237 -84.3187 187° South 476 548 35,000  Level FlightAware ADS-B
Sun 05:18:28 PM 30.8355 -84.3320 188° South 478 550 35,000  Level FlightAware ADS-B
Sun 05:19:01 PM 30.7652 -84.3426 187° South 479 551 35,000  Level FlightAware ADS-B
Sun 05:19:31 PM 30.6994 -84.3475 181° South 480 552 35,000  Level FlightAware ADS-B
Sun 05:20:01 PM 30.6382 -84.3448 175° South 482 555 35,000  Level FlightAware ADS-B (KONZ)
Sun 05:20:11 PM 30.6131 -84.3419 173° South 482 555 35,000  Level FlightAware ADS-B
Sun 05:20:41 PM 30.5430 -84.3278 167° South 485 558 35,000  Level FlightAware ADS-B
Sun 05:21:11 PM 30.4780 -84.3064 161° South 485 558 35,000  Level FlightAware ADS-B
Sun 05:21:48 PM 30.4021 -84.2699 155° Southeast 485 558 35,000  Level FlightAware ADS-B (KONZ)
Sun 05:22:31 PM 30.3174 -84.2161 151° Southeast 483 556 35,000  Level FlightAware ADS-B
Sun 05:23:01 PM 30.2644 -84.1823 151° Southeast 484 557 35,000  Level FlightAware ADS-B
Sun 05:23:31 PM 30.2031 -84.1426 151° Southeast 485 558 35,000  Level FlightAware ADS-B
Sun 05:24:06 PM 30.1318 -84.0962 151° Southeast 485 558 35,000  Level FlightAware ADS-B (KONZ)
Sun 05:24:50 PM 30.0452 -84.0399 151° Southeast 484 557 35,000  Level FlightAware ADS-B (KONZ)
Sun 05:25:31 PM 29.9696 -83.9908 151° Southeast 482 555 35,000  Level FlightAware ADS-B (KONZ)
Sun 05:26:02 PM 29.9137 -83.9546 151° Southeast 482 555 35,000  Level FlightAware ADS-B (KONZ)
Sun 05:26:47 PM 29.8319 -83.9016 151° Southeast 483 556 35,000  Level FlightAware ADS-B (KONZ)
Sun 05:28:05 PM 29.6878 -83.8069 151° Southeast 482 555 35,000  Level Miami Center
Sun 05:29:07 PM 29.5717 -83.7322 151° Southeast 482 555 35,000  Level Miami Center
Sun 05:30:08 PM 29.4319 -83.6433 151° Southeast 482 555 35,000  Level Miami Center
Sun 05:37:10 PM 28.6364 -83.2052 156° South 480 552 35,000  Level FlightAware ADS-B
Sun 05:39:10 PM 28.3436 -83.0487 155° Southeast 470 541 35,000  Level FlightAware ADS-B
Sun 05:41:15 PM 28.1765 -82.9632 156° South 475 547 35,000  Level FlightAware ADS-B
Sun 05:41:59 PM 28.0675 -82.9109 176° South 479 551 35,000  Level FlightAware ADS-B
Sun 05:42:30 PM 27.9319 -82.8954 175° South 482 555 35,000 55 Level FlightAware ADS-B
Sun 05:43:48 PM 27.7618 -82.8783 175° South 484 557 35,100 254 Climbing FlightAware ADS-B
Sun 05:44:28 PM 27.6747 -82.8697 175° South 485 558 35,500 494 Climbing FlightAware ADS-B
Sun 05:45:13 PM 27.5711 -82.8595 175° South 484 557 35,800 306 Climbing FlightAware ADS-B
Sun 05:46:06 PM 27.4492 -82.8475 175° South 476 548 36,000 143 Climbing FlightAware ADS-B
Sun 05:46:37 PM 27.3925 -82.8419 175° South 481 554 36,000  Level Miami Center
Sun 05:47:38 PM 27.2600 -82.8292 175° South 463 533 36,000  Level Miami Center
Sun 05:52:32 PM 26.6265 -82.7674 175° South 464 534 36,000  Level FlightAware ADS-B
Sun 05:54:05 PM 26.4259 -82.7480 175° South 459 528 36,000  Level FlightAware ADS-B
Sun 05:56:09 PM 26.1645 -82.7227 175° South 459 528 36,000  Level FlightAware ADS-B
Sun 05:56:46 PM 26.0850 -82.7152 175° South 459 528 36,000  Level FlightAware ADS-B
Sun 05:58:43 PM 25.8544 -82.6931 175° South 458 527 36,000  Level FlightAware ADS-B
Sun 05:59:18 PM 25.7635 -82.6845 175° South 460 529 36,000  Level FlightAware ADS-B
Sun 06:00:52 PM 25.5678 -82.6660 175° South 460 529 36,000  Level FlightAware ADS-B
Sun 06:01:55 PM 25.4320 -82.6529 175° South 462 532 36,000 -63 Level FlightAware ADS-B
Sun 06:02:27 PM 25.3621 -82.6464 175° South 465 535 35,900 -609 Descending FlightAware ADS-B
Sun 06:03:04 PM 25.2958 -82.6394 175° South 459 528 35,300 -1,091 Descending Miami Center
Sun 06:04:06 PM 25.1706 -82.6289 176° South 456 525 34,100 -1,161 Descending Miami Center
Sun 06:05:08 PM 25.0481 -82.6172 175° South 447 514 32,900 -1,171 Descending Miami Center
Sun 06:06:09 PM 24.9297 -82.6061 175° South 434 499 31,700 -1,171 Descending Miami Center
Sun 06:07:11 PM 24.8153 -82.5956 175° South 417 480 30,500 -1,258 Descending Miami Center
Sun 06:08:13 PM 24.6825 -82.5822 175° South 403 464 29,100 -1,268 Descending Miami Center
Sun 06:09:14 PM 24.5761 -82.5731 176° South 390 449 27,900 -1,171 Descending Miami Center
Sun 06:10:16 PM 24.4753 -82.5628 175° South 373 429 26,700 -1,161 Descending Miami Center
Sun 06:11:18 PM 24.3756 -82.5542 176° South 365 420 25,500 -1,122 Descending Miami Center
Sun 06:12:19 PM 24.2792 -82.5453 175° South 353 406 24,400 -1,024 Descending Miami Center
Sun 06:13:21 PM 24.1800 -82.5356 175° South 353 406 23,400 -1,016 Descending Miami Center
Sun 06:14:23 PM 24.0658 -82.5256 175° South 350 403 22,300 -1,073 Descending Miami Center
Sun 06:15:24 PM 23.9731 -82.5192 176° South 341 392 21,200 -1,082 Descending Miami Center
Sun 06:17:00 PM 23.7732 -82.4845 171° South  Level FlightAware Approximate
Sun 06:24:00 PM 22.9891 -82.4091 180° South  Level Estimated
Sun 06:25:00 PM 22.9891 -82.4091 180° South  Level Estimated
Sun 06:26:00 PM 22.9891 -82.4091 180° South  Level Estimated
Sun 06:27:00 PM 22.9891 -82.4091 180° South  Level Estimated
Sun 06:28:00 PM 22.9891 -82.4091 180° South  Level Estimated
Sun 06:29:00 PM 22.9891 -82.4091 180° South  Level Estimated
Sun 06:30:00 PM 22.9891 -82.4091 180° South  Level Estimated
Sun 06:31:00 PM 22.9891 -82.4091 180° South  Level Estimated
Sun 06:32:00 PM 22.9891 -82.4091 180° South  Level Estimated
Sun 06:33:00 PM 22.9891 -82.4091 180° South  Level Estimated
Sun 06:34:00 PM 22.9891 -82.4091 180° South  Level Estimated
Sun 06:35:00 PM 22.9891 -82.4091 180° South  Level Estimated
Sun 06:36:00 PM 22.9891 -82.4091 180° South  Level Estimated
Sun 06:37:00 PM 22.9891 -82.4091 180° South  Level Estimated
Sun 06:38:00 PM 22.9891 -82.4091 180° South  Level Estimated
Sun 06:39:00 PM 22.9891 -82.4091 180° South  Level Estimated
Sun 06:40:00 PM 22.9891 -82.4091 180° South  Level Estimated
Sun 06:41:00 PM 22.9891 -82.4091 180° South  Level Estimated
Sun 06:42:00 PM 22.9891 -82.4091 180° South  Level Estimated
Sun 06:43:00 PM 22.9891 -82.4091 180° South  Level Estimated
Sun 06:44:00 PM 22.9891 -82.4091 180° South  Level Estimated
Sun 06:45:00 PM 22.9891 -82.4091 180° South  Level Estimated

Login

Don't have an account? Register now (free) for customized features, flight alerts, and more!